PWSweather.com
Personal Weather Stations
Station Observations
NBW76
Silver Creek, North Bend, WA 98065

Silver CreekNorth Bend, WA 98065

Lat: 47.4993612, Lon: -121.7783245

Elevation: 443

Station Type: Davisd VP2 + Solar + UV + Webcam

Latest ConditionsUpdated 9:50:01 AM PST Sunday, Jan 26, 2020
Currently Today's Max Today's Min Today's Average
Temperature 49.0°F9.4°C 53.0°F11.7°C 44.3°F6.8°C 47.3°F8.5°C
Dew Point 42.8°F6.0°C 42.9°F6.1°C 39.1°F3.9°C 41.4°F5.2°C
Winds 4.6 mph NW7.4 kmh NW 15.0 mph -24.1 kmh - - 7.0 mph 11.3 kmh
Wind Gusts 10.4 mph16.7 kmh 29.9 mph48.1 kmh - -
Humidity 79% 88% 59% 80%
Pressure 29.95 in1014.2 mb 29.95 in1014.2 mb 29.72 in1006.4 mb -
Precipitation - 0.29 in7.4 mm - -
Hour Temp Dew Point Humidity Winds Wind Gusts Pressure Precip Precip Rate Daily Precip Total
09:50 AM 49.0°F9.4°C 42.8°F6.0°C 79% 4.6 mph NW7.4 kmh NW 10.4 mph16.7 kmh 29.95 in1014.2 mb - 0.00 in0.0 mm 0.29 in7.4 mm
09:40 AM 48.7°F9.3°C 42.8°F6.0°C 80% 3.5 mph SW5.6 kmh SW 3.5 mph5.6 kmh 29.95 in1014.2 mb - 0.01 in0.3 mm 0.29 in7.4 mm
09:30 AM 47.4°F8.6°C 42.9°F6.1°C 84% 5.8 mph NNE9.3 kmh NNE 10.4 mph16.7 kmh 29.95 in1014.2 mb - 0.01 in0.3 mm 0.29 in7.4 mm
09:20 AM 46.7°F8.2°C 42.7°F5.9°C 86% 3.5 mph NE5.6 kmh NE 4.6 mph7.4 kmh 29.94 in1013.9 mb - 0.01 in0.3 mm 0.29 in7.4 mm
09:10 AM 47.0°F8.3°C 42.4°F5.8°C 84% 1.2 mph SE1.9 kmh SE 3.5 mph5.6 kmh 29.94 in1013.9 mb - 0.01 in0.3 mm 0.29 in7.4 mm
09:00 AM 46.6°F8.1°C 42.7°F5.9°C 86% 4.6 mph NNE7.4 kmh NNE 4.6 mph7.4 kmh 29.93 in1013.5 mb - 0.01 in0.3 mm 0.29 in7.4 mm
08:50 AM 46.2°F7.9°C 41.9°F5.5°C 85% 3.5 mph SW5.6 kmh SW 3.5 mph5.6 kmh 29.93 in1013.5 mb - 0.02 in0.5 mm 0.29 in7.4 mm
08:40 AM 48.0°F8.9°C 42.4°F5.8°C 81% 2.3 mph SE3.7 kmh SE 5.8 mph9.3 kmh 29.92 in1013.2 mb - 0.02 in0.5 mm 0.28 in7.1 mm
08:30 AM 47.6°F8.7°C 42.7°F5.9°C 83% 5.8 mph SE9.3 kmh SE 16.1 mph25.9 kmh 29.91 in1012.9 mb - 0.02 in0.5 mm 0.28 in7.1 mm
08:20 AM 47.1°F8.4°C 42.8°F6.0°C 85% 2.3 mph SE3.7 kmh SE 3.5 mph5.6 kmh 29.90 in1012.5 mb - 0.02 in0.5 mm 0.28 in7.1 mm
08:10 AM 45.5°F7.5°C 41.9°F5.5°C 87% 1.2 mph SW1.9 kmh SW 3.5 mph5.6 kmh 29.90 in1012.5 mb - 0.02 in0.5 mm 0.28 in7.1 mm
08:00 AM 46.2°F7.9°C 42.5°F5.8°C 87% 3.5 mph S5.6 kmh S 4.6 mph7.4 kmh 29.89 in1012.2 mb - 0.02 in0.5 mm 0.28 in7.1 mm
07:50 AM 45.6°F7.6°C 42.0°F5.6°C 87% 3.5 mph S5.6 kmh S 3.5 mph5.6 kmh 29.89 in1012.2 mb - 0.01 in0.3 mm 0.27 in6.9 mm
07:40 AM 45.5°F7.5°C 41.9°F5.5°C 87% 3.5 mph ENE5.6 kmh ENE 5.8 mph9.3 kmh 29.88 in1011.9 mb - 0.00 in0.0 mm 0.26 in6.6 mm
07:30 AM 45.4°F7.4°C 41.8°F5.4°C 87% 4.6 mph E7.4 kmh E 10.4 mph16.7 kmh 29.88 in1011.9 mb - 0.00 in0.0 mm 0.26 in6.6 mm
07:20 AM 45.4°F7.4°C 41.8°F5.4°C 87% 3.5 mph ESE5.6 kmh ESE 5.8 mph9.3 kmh 29.87 in1011.5 mb - 0.00 in0.0 mm 0.26 in6.6 mm
07:10 AM 45.2°F7.3°C 41.6°F5.3°C 87% 4.6 mph SE7.4 kmh SE 4.6 mph7.4 kmh 29.87 in1011.5 mb - 0.00 in0.0 mm 0.26 in6.6 mm
07:00 AM 45.4°F7.4°C 41.8°F5.4°C 87% 2.3 mph ESE3.7 kmh ESE 3.5 mph5.6 kmh 29.87 in1011.5 mb - 0.02 in0.5 mm 0.26 in6.6 mm
06:50 AM 46.0°F7.8°C 42.0°F5.6°C 86% 2.3 mph E3.7 kmh E 3.5 mph5.6 kmh 29.86 in1011.2 mb - 0.04 in1.0 mm 0.26 in6.6 mm
06:40 AM 45.4°F7.4°C 42.1°F5.6°C 88% 2.3 mph NE3.7 kmh NE 4.6 mph7.4 kmh 29.86 in1011.2 mb - 0.09 in2.3 mm 0.26 in6.6 mm
06:30 AM 45.1°F7.3°C 41.5°F5.3°C 87% 2.3 mph E3.7 kmh E 5.8 mph9.3 kmh 29.86 in1011.2 mb - 0.11 in2.8 mm 0.26 in6.6 mm
06:20 AM 45.1°F7.3°C 41.8°F5.4°C 88% 5.8 mph ESE9.3 kmh ESE 15.0 mph24.1 kmh 29.85 in1010.8 mb - 0.13 in3.3 mm 0.26 in6.6 mm
06:10 AM 44.7°F7.1°C 41.4°F5.2°C 88% 5.8 mph E9.3 kmh E 11.5 mph18.5 kmh 29.84 in1010.5 mb - 0.15 in3.8 mm 0.26 in6.6 mm
06:00 AM 45.4°F7.4°C 42.1°F5.6°C 88% 3.5 mph NE5.6 kmh NE 11.5 mph18.5 kmh 29.84 in1010.5 mb - 0.16 in4.1 mm 0.25 in6.4 mm
05:50 AM 44.3°F6.8°C 40.7°F4.8°C 87% 3.5 mph E5.6 kmh E 4.6 mph7.4 kmh 29.86 in1011.2 mb - 0.13 in3.3 mm 0.22 in5.6 mm
05:40 AM 44.5°F6.9°C 40.6°F4.8°C 86% 5.8 mph SE9.3 kmh SE 11.5 mph18.5 kmh 29.85 in1010.8 mb - 0.09 in2.3 mm 0.18 in4.6 mm
05:30 AM 44.7°F7.1°C 40.8°F4.9°C 86% 5.8 mph SE9.3 kmh SE 11.5 mph18.5 kmh 29.83 in1010.2 mb - 0.06 in1.5 mm 0.15 in3.8 mm
05:20 AM 45.3°F7.4°C 40.4°F4.7°C 83% 5.8 mph ESE9.3 kmh ESE 10.4 mph16.7 kmh 29.82 in1009.8 mb - 0.04 in1.0 mm 0.13 in3.3 mm
05:10 AM 46.1°F7.8°C 40.6°F4.8°C 81% 11.5 mph ESE18.5 kmh ESE 19.6 mph31.5 kmh 29.82 in1009.8 mb - 0.03 in0.8 mm 0.11 in2.8 mm
05:00 AM 47.5°F8.6°C 40.6°F4.8°C 77% 11.5 mph ESE18.5 kmh ESE 19.6 mph31.5 kmh 29.81 in1009.5 mb - 0.02 in0.5 mm 0.09 in2.3 mm
04:50 AM 47.4°F8.6°C 40.6°F4.8°C 77% 12.7 mph E20.4 kmh E 18.4 mph29.6 kmh 29.80 in1009.1 mb - 0.02 in0.5 mm 0.09 in2.3 mm
04:40 AM 47.8°F8.8°C 40.6°F4.8°C 76% 12.7 mph ESE20.4 kmh ESE 19.6 mph31.5 kmh 29.79 in1008.8 mb - 0.02 in0.5 mm 0.09 in2.3 mm
04:30 AM 46.4°F8.0°C 40.5°F4.7°C 80% 15.0 mph SE24.1 kmh SE 29.9 mph48.1 kmh 29.79 in1008.8 mb - 0.03 in0.8 mm 0.09 in2.3 mm
04:20 AM 45.8°F7.7°C 40.9°F4.9°C 83% 11.5 mph ESE18.5 kmh ESE 16.1 mph25.9 kmh 29.79 in1008.8 mb - 0.04 in1.0 mm 0.09 in2.3 mm
04:10 AM 46.0°F7.8°C 40.8°F4.9°C 82% 12.7 mph SE20.4 kmh SE 13.8 mph22.2 kmh 29.80 in1009.1 mb - 0.03 in0.8 mm 0.08 in2.0 mm
04:00 AM 46.2°F7.9°C 41.0°F5.0°C 82% 9.2 mph SE14.8 kmh SE 12.7 mph20.4 kmh 29.79 in1008.8 mb - 0.03 in0.8 mm 0.07 in1.8 mm
03:50 AM 46.5°F8.1°C 41.3°F5.2°C 82% 11.5 mph SE18.5 kmh SE 16.1 mph25.9 kmh 29.79 in1008.8 mb - 0.04 in1.0 mm 0.07 in1.8 mm
03:40 AM 46.2°F7.9°C 41.6°F5.3°C 84% 6.9 mph SE11.1 kmh SE 15.0 mph24.1 kmh 29.78 in1008.5 mb - 0.04 in1.0 mm 0.07 in1.8 mm
03:30 AM 46.3°F7.9°C 41.7°F5.4°C 84% 11.5 mph SE18.5 kmh SE 20.7 mph33.3 kmh 29.78 in1008.5 mb - 0.03 in0.8 mm 0.06 in1.5 mm
03:20 AM 46.6°F8.1°C 42.0°F5.6°C 84% 5.8 mph SE9.3 kmh SE 12.7 mph20.4 kmh 29.77 in1008.1 mb - 0.03 in0.8 mm 0.05 in1.3 mm
03:10 AM 46.8°F8.2°C 41.6°F5.3°C 82% 10.4 mph SE16.7 kmh SE 11.5 mph18.5 kmh 29.77 in1008.1 mb - 0.03 in0.8 mm 0.05 in1.3 mm
03:00 AM 47.3°F8.5°C 41.7°F5.4°C 81% 11.5 mph SE18.5 kmh SE 20.7 mph33.3 kmh 29.75 in1007.5 mb - 0.03 in0.8 mm 0.04 in1.0 mm
02:50 AM 47.1°F8.4°C 41.6°F5.3°C 81% 5.8 mph SE9.3 kmh SE 10.4 mph16.7 kmh 29.75 in1007.5 mb - 0.02 in0.5 mm 0.03 in0.8 mm
02:40 AM 47.4°F8.6°C 41.6°F5.3°C 80% 9.2 mph SE14.8 kmh SE 11.5 mph18.5 kmh 29.74 in1007.1 mb - 0.02 in0.5 mm 0.03 in0.8 mm
02:30 AM 47.3°F8.5°C 41.5°F5.3°C 80% 9.2 mph SE14.8 kmh SE 15.0 mph24.1 kmh 29.74 in1007.1 mb - 0.02 in0.5 mm 0.03 in0.8 mm
02:20 AM 47.4°F8.6°C 41.6°F5.3°C 80% 9.2 mph ESE14.8 kmh ESE 11.5 mph18.5 kmh 29.73 in1006.8 mb - 0.02 in0.5 mm 0.03 in0.8 mm
02:10 AM 48.5°F9.2°C 41.6°F5.3°C 77% 11.5 mph ESE18.5 kmh ESE 17.3 mph27.8 kmh 29.73 in1006.8 mb - 0.01 in0.3 mm 0.02 in0.5 mm
02:00 AM 48.1°F8.9°C 41.5°F5.3°C 78% 10.4 mph ESE16.7 kmh ESE 11.5 mph18.5 kmh 29.73 in1006.8 mb - 0.02 in0.5 mm 0.02 in0.5 mm
01:50 AM 48.2°F9.0°C 41.6°F5.3°C 78% 10.4 mph ESE16.7 kmh ESE 13.8 mph22.2 kmh 29.72 in1006.4 mb - 0.01 in0.3 mm 0.01 in0.3 mm
01:40 AM 48.5°F9.2°C 41.6°F5.3°C 77% 10.4 mph SE16.7 kmh SE 16.1 mph25.9 kmh 29.73 in1006.8 mb - 0.01 in0.3 mm 0.01 in0.3 mm
01:30 AM 48.5°F9.2°C 41.3°F5.2°C 76% 11.5 mph E18.5 kmh E 12.7 mph20.4 kmh 29.74 in1007.1 mb - 0.01 in0.3 mm 0.01 in0.3 mm
01:20 AM 49.2°F9.6°C 41.3°F5.2°C 74% 11.5 mph ESE18.5 kmh ESE 16.1 mph25.9 kmh 29.75 in1007.5 mb - 0.01 in0.3 mm 0.01 in0.3 mm
01:10 AM 49.4°F9.7°C 41.1°F5.1°C 73% 6.9 mph ESE11.1 kmh ESE 12.7 mph20.4 kmh 29.76 in1007.8 mb - 0.01 in0.3 mm 0.01 in0.3 mm
01:00 AM 51.2°F10.7°C 40.7°F4.8°C 67% 10.4 mph E16.7 kmh E 15.0 mph24.1 kmh 29.77 in1008.1 mb - 0.00 in0.0 mm 0.00 in0.0 mm
12:50 AM 52.4°F11.3°C 39.7°F4.3°C 62% 6.9 mph ESE11.1 kmh ESE 12.7 mph20.4 kmh 29.76 in1007.8 mb - 0.00 in0.0 mm 0.00 in0.0 mm
12:40 AM 52.9°F11.6°C 39.4°F4.1°C 60% 9.2 mph E14.8 kmh E 18.4 mph29.6 kmh 29.74 in1007.1 mb - 0.00 in0.0 mm 0.00 in0.0 mm
12:30 AM 53.0°F11.7°C 39.1°F3.9°C 59% 5.8 mph ESE9.3 kmh ESE 13.8 mph22.2 kmh 29.73 in1006.8 mb - 0.00 in0.0 mm 0.00 in0.0 mm
12:20 AM 52.6°F11.4°C 39.1°F3.9°C 60% 10.4 mph E16.7 kmh E 19.6 mph31.5 kmh 29.74 in1007.1 mb - 0.00 in0.0 mm 0.00 in0.0 mm
12:10 AM 51.1°F10.6°C 39.7°F4.3°C 65% 4.6 mph ESE7.4 kmh ESE 11.5 mph18.5 kmh 29.76 in1007.8 mb - 0.00 in0.0 mm 0.00 in0.0 mm
12:00 AM 51.4°F10.8°C 39.2°F4.0°C 63% 6.9 mph SE11.1 kmh SE 9.2 mph14.8 kmh 29.79 in1008.8 mb - 0.00 in0.0 mm 0.00 in0.0 mm